createdAt,value
2017-08-26T00:00:50.522Z,12
2017-08-26T00:01:52.939Z,11.9
2017-08-26T00:02:55.717Z,11.9
2017-08-26T00:03:58.144Z,12
2017-08-26T00:05:00.571Z,11.9
2017-08-26T00:06:02.997Z,11.9
2017-08-26T00:07:05.417Z,11.9
2017-08-26T00:08:07.840Z,11.9
2017-08-26T00:09:10.524Z,11.9
2017-08-26T00:10:12.945Z,11.9
2017-08-26T00:11:15.365Z,11.9
2017-08-26T00:12:17.793Z,11.9
2017-08-26T00:13:20.557Z,11.8
2017-08-26T00:14:22.978Z,11.8
2017-08-26T00:15:25.748Z,11.8
2017-08-26T00:16:28.184Z,11.8
2017-08-26T00:17:30.608Z,11.8
2017-08-26T00:18:33.038Z,11.8
2017-08-26T00:19:35.598Z,11.8
2017-08-26T00:20:38.364Z,11.8
2017-08-26T00:21:40.790Z,11.8
2017-08-26T00:22:43.551Z,11.7
2017-08-26T00:23:46.064Z,11.7
2017-08-26T00:24:48.499Z,11.8
2017-08-26T00:25:50.916Z,11.7
2017-08-26T00:26:53.681Z,11.7
2017-08-26T00:27:56.445Z,11.7
2017-08-26T00:28:58.870Z,11.7
2017-08-26T00:30:01.632Z,11.6
2017-08-26T00:31:04.055Z,11.6
2017-08-26T00:32:06.482Z,11.7
2017-08-26T00:33:08.911Z,11.7
2017-08-26T00:34:12.072Z,11.8
2017-08-26T00:35:14.498Z,11.8
2017-08-26T00:36:16.919Z,11.8
2017-08-26T00:37:19.339Z,11.9
2017-08-26T00:38:21.934Z,11.9
2017-08-26T00:39:24.360Z,11.9
2017-08-26T00:40:26.781Z,11.9
2017-08-26T00:41:29.211Z,11.9
2017-08-26T00:42:31.637Z,11.9
2017-08-26T00:43:34.198Z,11.9
2017-08-26T00:44:36.630Z,12
2017-08-26T00:45:39.055Z,12
2017-08-26T00:46:41.484Z,12
2017-08-26T00:47:43.907Z,12
2017-08-26T00:48:46.582Z,12
2017-08-26T00:49:49.018Z,12
2017-08-26T00:50:51.435Z,12
2017-08-26T00:51:53.864Z,12
2017-08-26T00:52:56.632Z,12
2017-08-26T00:53:59.060Z,12.1
2017-08-26T00:55:01.484Z,12.1
2017-08-26T00:56:03.913Z,12.1
2017-08-26T00:57:06.342Z,12.1
2017-08-26T00:58:08.769Z,12.1
2017-08-26T00:59:11.205Z,12.1
2017-08-26T01:00:13.625Z,12.1
2017-08-26T01:01:16.046Z,12.1
2017-08-26T01:02:18.470Z,12.1
2017-08-26T01:03:21.235Z,12
2017-08-26T01:04:23.760Z,12
2017-08-26T01:05:26.186Z,12
2017-08-26T01:06:28.611Z,12
2017-08-26T01:07:31.040Z,11.9
2017-08-26T01:08:33.483Z,11.9
2017-08-26T01:09:36.017Z,11.9
2017-08-26T01:10:38.447Z,11.9
2017-08-26T01:11:40.879Z,11.9
2017-08-26T01:12:43.300Z,11.9
2017-08-26T01:13:45.922Z,11.8
2017-08-26T01:14:48.339Z,11.8
2017-08-26T01:15:50.763Z,11.8
2017-08-26T01:16:53.197Z,11.8
2017-08-26T01:17:55.613Z,11.8
2017-08-26T01:18:58.115Z,11.8
2017-08-26T01:20:00.885Z,11.8
2017-08-26T01:21:03.665Z,11.8
2017-08-26T01:22:06.428Z,11.8
2017-08-26T01:23:09.192Z,11.9
2017-08-26T01:24:11.618Z,11.8
2017-08-26T01:25:14.046Z,11.8
2017-08-26T01:26:16.820Z,11.8
2017-08-26T01:27:19.240Z,11.8
2017-08-26T01:28:21.667Z,11.8
2017-08-26T01:29:24.197Z,11.8
2017-08-26T01:30:26.965Z,11.8
2017-08-26T01:31:29.393Z,11.7
2017-08-26T01:32:31.813Z,11.7
2017-08-26T01:33:34.684Z,11.7
2017-08-26T01:34:37.107Z,11.7
2017-08-26T01:35:39.537Z,11.7
2017-08-26T01:36:41.953Z,11.7
2017-08-26T01:37:44.383Z,11.7
2017-08-26T01:38:47.542Z,11.8
2017-08-26T01:39:49.958Z,11.8
2017-08-26T01:40:52.386Z,11.8
2017-08-26T01:41:54.823Z,11.7
2017-08-26T01:42:57.244Z,11.7
2017-08-26T01:43:59.666Z,11.8
2017-08-26T01:45:02.434Z,11.7
2017-08-26T01:46:04.858Z,11.7
2017-08-26T01:47:07.290Z,11.7
2017-08-26T01:48:09.715Z,11.7
2017-08-26T01:49:12.354Z,11.7
2017-08-26T01:50:14.786Z,11.6
2017-08-26T01:51:17.207Z,11.6
2017-08-26T01:52:19.634Z,11.6
2017-08-26T01:53:22.062Z,11.6
2017-08-26T01:54:24.484Z,11.6
2017-08-26T01:55:26.914Z,11.6
2017-08-26T01:56:29.353Z,11.6
2017-08-26T01:57:31.782Z,11.6
2017-08-26T01:58:34.207Z,11.6
2017-08-26T01:59:36.627Z,11.6
2017-08-26T02:00:39.402Z,11.6
2017-08-26T02:01:41.828Z,11.5
2017-08-26T02:02:44.356Z,11.5
2017-08-26T02:03:47.114Z,11.5
2017-08-26T02:04:49.892Z,11.5
2017-08-26T02:05:52.318Z,11.5
2017-08-26T02:06:54.746Z,11.5
2017-08-26T02:07:57.192Z,11.5
2017-08-26T02:08:59.616Z,11.6
2017-08-26T02:10:02.039Z,11.6
2017-08-26T02:11:04.467Z,11.6
2017-08-26T02:12:06.890Z,11.7
2017-08-26T02:13:09.326Z,11.7
2017-08-26T02:14:11.770Z,11.7
2017-08-26T02:15:14.192Z,11.8
2017-08-26T02:16:16.617Z,11.8
2017-08-26T02:17:19.045Z,11.8
2017-08-26T02:18:21.470Z,11.8
2017-08-26T02:19:23.897Z,11.7
2017-08-26T02:20:26.659Z,11.7
2017-08-26T02:21:29.088Z,11.7
2017-08-26T02:22:31.520Z,11.7
2017-08-26T02:23:34.059Z,11.6
2017-08-26T02:24:36.491Z,11.6
2017-08-26T02:25:38.916Z,11.6
2017-08-26T02:26:41.340Z,11.6
2017-08-26T02:27:43.771Z,11.6
2017-08-26T02:28:46.197Z,11.6
2017-08-26T02:29:48.616Z,11.5
2017-08-26T02:30:51.043Z,11.5
2017-08-26T02:31:53.820Z,11.5
2017-08-26T02:32:56.257Z,11.5
2017-08-26T02:33:58.678Z,11.5
2017-08-26T02:35:01.452Z,11.5
2017-08-26T02:36:03.870Z,11.5
2017-08-26T02:37:06.305Z,11.4
2017-08-26T02:38:08.730Z,11.4
2017-08-26T02:39:11.156Z,11.4
2017-08-26T02:40:13.588Z,11.4
2017-08-26T02:41:16.015Z,11.4
2017-08-26T02:42:18.453Z,11.4
2017-08-26T02:43:20.881Z,11.5
2017-08-26T02:44:23.646Z,11.5
2017-08-26T02:45:26.070Z,11.5
2017-08-26T02:46:28.499Z,11.5
2017-08-26T02:47:30.924Z,11.5
2017-08-26T02:48:33.354Z,11.5
2017-08-26T02:49:35.778Z,11.5
2017-08-26T02:50:38.205Z,11.5
2017-08-26T02:51:40.630Z,11.4
2017-08-26T02:52:43.399Z,11.4
2017-08-26T02:53:45.834Z,11.4
2017-08-26T02:54:48.259Z,11.4
2017-08-26T02:55:50.687Z,11.4
2017-08-26T02:56:53.107Z,11.4
2017-08-26T02:57:55.558Z,11.4
2017-08-26T02:58:57.980Z,11.4
2017-08-26T03:00:00.401Z,11.4
2017-08-26T03:01:02.830Z,11.4
2017-08-26T03:02:05.256Z,11.4
2017-08-26T03:03:07.677Z,11.4
2017-08-26T03:04:10.118Z,11.4
2017-08-26T03:05:12.561Z,11.4
2017-08-26T03:06:14.988Z,11.4
2017-08-26T03:07:17.414Z,11.4
2017-08-26T03:08:19.848Z,11.4
2017-08-26T03:09:22.273Z,11.4
2017-08-26T03:10:25.042Z,11.4
2017-08-26T03:11:27.485Z,11.4
2017-08-26T03:12:29.915Z,11.4
2017-08-26T03:13:32.673Z,11.4
2017-08-26T03:14:35.106Z,11.4
2017-08-26T03:15:37.528Z,11.4
2017-08-26T03:16:39.960Z,11.3
2017-08-26T03:17:42.391Z,11.3
2017-08-26T03:18:44.817Z,11.3
2017-08-26T03:19:47.246Z,11.3
2017-08-26T03:20:49.680Z,11.3
2017-08-26T03:21:52.105Z,11.3
2017-08-26T03:22:54.894Z,11.3
2017-08-26T03:23:58.001Z,11.3
2017-08-26T03:25:00.427Z,11.3
2017-08-26T03:26:02.863Z,11.3
2017-08-26T03:27:05.286Z,11.3
2017-08-26T03:28:08.065Z,11.3
2017-08-26T03:29:10.498Z,11.3
2017-08-26T03:30:12.922Z,11.3
2017-08-26T03:31:15.352Z,11.2
2017-08-26T03:32:17.778Z,11.2
2017-08-26T03:33:20.208Z,11.2
2017-08-26T03:34:22.629Z,11.2
2017-08-26T03:35:25.062Z,11.2
2017-08-26T03:36:27.482Z,11.2
2017-08-26T03:37:29.912Z,11.2
2017-08-26T03:38:32.344Z,11.2
2017-08-26T03:39:34.767Z,11.2
2017-08-26T03:40:37.223Z,11.2
2017-08-26T03:41:39.645Z,11.2
2017-08-26T03:42:42.075Z,11.1
2017-08-26T03:43:44.495Z,11.1
2017-08-26T03:44:46.925Z,11.1
2017-08-26T03:45:49.338Z,11.1
2017-08-26T03:46:52.473Z,11.1
2017-08-26T03:47:54.900Z,11.1
2017-08-26T03:48:57.321Z,11.2
2017-08-26T03:49:59.749Z,11.2
2017-08-26T03:51:02.169Z,11.2
2017-08-26T03:52:04.585Z,11.1
2017-08-26T03:53:07.026Z,11.1
2017-08-26T03:54:09.449Z,11.1
2017-08-26T03:55:11.874Z,11.1
2017-08-26T03:56:14.642Z,11.1
2017-08-26T03:57:17.063Z,11.1
2017-08-26T03:58:19.490Z,11.1
2017-08-26T03:59:22.269Z,11.1
2017-08-26T04:00:25.026Z,11.1
2017-08-26T04:01:27.451Z,11
2017-08-26T04:02:30.225Z,11
2017-08-26T04:03:32.644Z,11.1
2017-08-26T04:04:35.067Z,11.1
2017-08-26T04:05:37.493Z,11.1
2017-08-26T04:06:39.915Z,11.1
2017-08-26T04:07:42.336Z,11.1
2017-08-26T04:08:44.769Z,11.1
2017-08-26T04:09:47.191Z,11.1
2017-08-26T04:10:49.613Z,11.1
2017-08-26T04:11:52.028Z,11.1
2017-08-26T04:12:54.454Z,11.1
2017-08-26T04:13:57.219Z,11.1
2017-08-26T04:14:59.990Z,11.1
2017-08-26T04:16:02.420Z,11.1
2017-08-26T04:17:04.846Z,11.1
2017-08-26T04:18:07.271Z,11.1
2017-08-26T04:19:09.708Z,11.1
2017-08-26T04:20:12.128Z,11.1
2017-08-26T04:21:14.552Z,11.1
2017-08-26T04:22:16.977Z,11.1
2017-08-26T04:23:19.396Z,11.1
2017-08-26T04:24:21.829Z,11.2
2017-08-26T04:25:24.253Z,11.2
2017-08-26T04:26:26.662Z,11.2
2017-08-26T04:27:29.124Z,11.2
2017-08-26T04:28:31.591Z,11.2
2017-08-26T04:29:34.084Z,11.2
2017-08-26T04:30:36.546Z,11.2
2017-08-26T04:31:39.347Z,11.2
2017-08-26T04:32:41.816Z,11.3
2017-08-26T04:33:44.278Z,11.3
2017-08-26T04:34:46.736Z,11.3
2017-08-26T04:35:49.574Z,11.3
2017-08-26T04:36:52.032Z,11.3
2017-08-26T04:37:54.491Z,11.3
2017-08-26T04:38:56.948Z,11.3
2017-08-26T04:39:59.410Z,11.3
2017-08-26T04:41:01.858Z,11.3
2017-08-26T04:42:04.323Z,11.3
2017-08-26T04:43:06.795Z,11.4
2017-08-26T04:44:09.261Z,11.4
2017-08-26T04:45:12.097Z,11.3
2017-08-26T04:46:14.564Z,11.4
2017-08-26T04:47:17.026Z,11.4
2017-08-26T04:48:19.496Z,11.5
2017-08-26T04:49:21.963Z,11.5
2017-08-26T04:50:24.430Z,11.5
2017-08-26T04:51:26.897Z,11.5
2017-08-26T04:52:29.373Z,11.5
2017-08-26T04:53:31.838Z,11.5
2017-08-26T04:54:34.309Z,11.6
2017-08-26T04:55:36.782Z,11.6
2017-08-26T04:56:39.258Z,11.6
2017-08-26T04:57:41.729Z,11.6
2017-08-26T04:58:44.187Z,11.5
2017-08-26T04:59:46.658Z,11.5
2017-08-26T05:00:49.120Z,11.6
2017-08-26T05:01:51.570Z,11.6
2017-08-26T05:02:54.090Z,11.6
2017-08-26T05:03:56.994Z,11.6
2017-08-26T05:04:59.459Z,11.6
2017-08-26T05:06:02.265Z,11.6
2017-08-26T05:07:04.726Z,11.6
2017-08-26T05:08:07.184Z,11.7
2017-08-26T05:09:09.636Z,11.7
2017-08-26T05:10:12.101Z,11.7
2017-08-26T05:11:15.040Z,11.8
2017-08-26T05:12:18.192Z,11.8
2017-08-26T05:13:20.655Z,11.8
2017-08-26T05:14:23.114Z,11.9
2017-08-26T05:15:25.577Z,11.9
2017-08-26T05:16:28.043Z,11.9
2017-08-26T05:17:30.496Z,12
2017-08-26T05:18:32.966Z,12
2017-08-26T05:19:35.430Z,12.1
2017-08-26T05:20:38.115Z,12.1
2017-08-26T05:21:40.582Z,12.1
2017-08-26T05:22:43.048Z,12.2
2017-08-26T05:23:45.500Z,12.2
2017-08-26T05:24:47.964Z,12.2
2017-08-26T05:25:50.430Z,12.2
2017-08-26T05:26:53.244Z,12.2
2017-08-26T05:27:55.704Z,12.3
2017-08-26T05:28:58.514Z,12.3
2017-08-26T05:30:00.973Z,12.3
2017-08-26T05:31:03.443Z,12.3
2017-08-26T05:32:05.905Z,12.3
2017-08-26T05:33:08.872Z,12.4
2017-08-26T05:34:11.338Z,12.4
2017-08-26T05:35:13.798Z,12.4
2017-08-26T05:36:16.261Z,12.4
2017-08-26T05:37:19.064Z,12.5
2017-08-26T05:38:21.518Z,12.5
2017-08-26T05:39:24.038Z,12.6
2017-08-26T05:40:26.505Z,12.6
2017-08-26T05:41:29.338Z,12.7
2017-08-26T05:42:31.801Z,12.7
2017-08-26T05:43:34.691Z,12.7
2017-08-26T05:44:37.184Z,12.7
2017-08-26T05:45:39.663Z,12.8
2017-08-26T05:46:42.467Z,12.8
2017-08-26T05:47:45.095Z,12.8
2017-08-26T05:48:47.561Z,12.9
2017-08-26T05:49:50.032Z,12.9
2017-08-26T05:50:52.849Z,13
2017-08-26T05:51:55.313Z,13.1
2017-08-26T05:52:57.768Z,13.2
2017-08-26T05:54:00.235Z,13.2
2017-08-26T05:55:02.691Z,13.3
2017-08-26T05:56:05.155Z,13.3
2017-08-26T05:57:07.609Z,13.4
2017-08-26T05:58:10.414Z,13.4
2017-08-26T05:59:12.886Z,13.5
2017-08-26T06:00:15.698Z,13.6
2017-08-26T06:01:18.166Z,13.6
2017-08-26T06:02:20.622Z,13.6
2017-08-26T06:03:23.092Z,13.7
2017-08-26T06:04:25.904Z,13.7
2017-08-26T06:05:28.377Z,13.8
2017-08-26T06:06:31.189Z,13.8
2017-08-26T06:07:33.752Z,13.8
2017-08-26T06:08:36.201Z,13.8
2017-08-26T06:09:38.971Z,13.8
2017-08-26T06:10:41.795Z,13.9
2017-08-26T06:11:44.264Z,13.9
2017-08-26T06:12:46.727Z,14
2017-08-26T06:13:49.186Z,14
2017-08-26T06:14:51.641Z,14
2017-08-26T06:15:54.114Z,14.1
2017-08-26T06:16:56.588Z,14.1
2017-08-26T06:17:59.382Z,14.1
2017-08-26T06:19:01.845Z,14.2
2017-08-26T06:20:04.457Z,14.2
2017-08-26T06:21:06.917Z,14.3
2017-08-26T06:22:09.384Z,14.3
2017-08-26T06:23:11.839Z,14.4
2017-08-26T06:24:14.303Z,14.5
2017-08-26T06:25:16.773Z,14.5
2017-08-26T06:26:19.326Z,14.5
2017-08-26T06:27:21.786Z,14.6
2017-08-26T06:28:24.349Z,14.7
2017-08-26T06:29:26.884Z,14.8
2017-08-26T06:30:29.362Z,14.9
2017-08-26T06:31:31.832Z,14.9
2017-08-26T06:32:34.289Z,15
2017-08-26T06:33:36.755Z,15
2017-08-26T06:34:39.223Z,15
2017-08-26T06:35:41.693Z,15
2017-08-26T06:36:44.510Z,15.1
2017-08-26T06:37:46.971Z,15.1
2017-08-26T06:38:49.445Z,15.1
2017-08-26T06:39:51.908Z,15.2
2017-08-26T06:40:54.576Z,15.3
2017-08-26T06:41:57.064Z,15.4
2017-08-26T06:42:59.524Z,15.5
2017-08-26T06:44:01.988Z,15.5
2017-08-26T06:45:04.455Z,15.6
2017-08-26T06:46:06.925Z,15.6
2017-08-26T06:47:09.491Z,15.7
2017-08-26T06:48:11.959Z,15.7
2017-08-26T06:49:14.659Z,15.8
2017-08-26T06:50:17.129Z,15.8
2017-08-26T06:51:19.592Z,15.9
2017-08-26T06:52:22.059Z,15.9
2017-08-26T06:53:24.525Z,15.9
2017-08-26T06:54:27.332Z,15.9
2017-08-26T06:55:29.802Z,15.9
2017-08-26T06:56:32.281Z,16
2017-08-26T06:57:34.745Z,16
2017-08-26T06:58:37.212Z,16
2017-08-26T06:59:40.196Z,16.1
2017-08-26T07:00:42.669Z,16.1
2017-08-26T07:01:45.136Z,16.1
2017-08-26T07:02:47.604Z,16.1
2017-08-26T07:03:50.059Z,16.2
2017-08-26T07:04:52.541Z,16.2
2017-08-26T07:05:54.999Z,16.3
2017-08-26T07:06:57.467Z,16.3
2017-08-26T07:07:59.943Z,16.3
2017-08-26T07:09:02.409Z,16.4
2017-08-26T07:10:04.879Z,16.4
2017-08-26T07:11:07.514Z,16.5
2017-08-26T07:12:09.983Z,16.6
2017-08-26T07:13:50.789Z,16.6
2017-08-26T07:14:53.549Z,16.8
2017-08-26T07:15:55.955Z,16.9
2017-08-26T07:16:58.455Z,16.9
2017-08-26T07:18:00.872Z,17
2017-08-26T07:19:03.284Z,17
2017-08-26T07:20:05.689Z,17
2017-08-26T07:21:08.103Z,17.1
2017-08-26T07:22:10.504Z,17.1
2017-08-26T07:23:12.918Z,17.1
2017-08-26T07:24:15.334Z,17.2
2017-08-26T07:25:17.744Z,17.2
2017-08-26T07:26:20.153Z,17.3
2017-08-26T07:27:22.915Z,17.3
2017-08-26T07:28:25.315Z,17.3
2017-08-26T07:29:27.727Z,17.3
2017-08-26T07:30:30.472Z,17.4
2017-08-26T07:31:32.882Z,17.4
2017-08-26T07:32:35.291Z,17.4
2017-08-26T07:33:37.698Z,17.5
2017-08-26T07:34:40.113Z,17.6
2017-08-26T07:35:42.526Z,17.6
2017-08-26T07:36:44.934Z,17.7
2017-08-26T07:37:47.343Z,17.8
2017-08-26T07:38:49.757Z,17.9
2017-08-26T07:39:52.160Z,17.9
2017-08-26T07:40:54.918Z,17.9
2017-08-26T07:41:57.336Z,17.9
2017-08-26T07:42:59.747Z,18
2017-08-26T07:44:02.862Z,18.1
2017-08-26T07:45:05.272Z,18.2
2017-08-26T07:46:08.028Z,18.2
2017-08-26T07:47:10.442Z,18.3
2017-08-26T07:48:12.851Z,18.4
2017-08-26T07:49:15.252Z,18.4
2017-08-26T07:50:18.012Z,18.5
2017-08-26T07:51:20.412Z,18.5
2017-08-26T07:52:22.827Z,18.5
2017-08-26T07:53:57.376Z,18.6
2017-08-26T07:54:59.802Z,18.7
2017-08-26T07:56:02.245Z,18.8
2017-08-26T07:57:04.676Z,18.9
2017-08-26T07:58:07.115Z,18.9
2017-08-26T07:59:09.552Z,19
2017-08-26T08:00:11.985Z,19.1
2017-08-26T08:01:14.418Z,19.2
2017-08-26T08:02:16.854Z,19.3
2017-08-26T08:03:19.281Z,19.4
2017-08-26T08:04:21.714Z,19.5
2017-08-26T08:05:24.148Z,19.6
2017-08-26T08:06:26.580Z,19.8
2017-08-26T08:07:29.015Z,20
2017-08-26T08:08:31.448Z,20.3
2017-08-26T08:09:33.882Z,20.4
2017-08-26T08:10:36.318Z,20.5
2017-08-26T08:11:39.096Z,20.5
2017-08-26T08:12:41.533Z,20.6
2017-08-26T08:13:44.317Z,20.8
2017-08-26T08:14:46.753Z,20.7
2017-08-26T08:15:49.194Z,20.8
2017-08-26T08:16:51.629Z,20.8
2017-08-26T08:17:54.067Z,20.8
2017-08-26T08:18:56.497Z,20.9
2017-08-26T08:19:58.932Z,20.9
2017-08-26T08:21:01.369Z,21.1
2017-08-26T08:22:03.804Z,20.9
2017-08-26T08:23:06.238Z,21.2
2017-08-26T08:24:08.673Z,21.4
2017-08-26T08:25:11.107Z,21.4
2017-08-26T08:26:13.543Z,21.5
2017-08-26T08:27:15.983Z,21.6
2017-08-26T08:28:18.422Z,21.6
2017-08-26T08:29:20.859Z,21.5
2017-08-26T08:30:23.300Z,21.6
2017-08-26T08:31:25.732Z,21.7
2017-08-26T08:32:28.164Z,21.7
2017-08-26T08:33:30.602Z,21.7
2017-08-26T08:34:33.037Z,21.7
2017-08-26T08:35:35.474Z,21.6
2017-08-26T08:36:37.909Z,21.7
2017-08-26T08:37:40.348Z,21.8
2017-08-26T08:38:43.122Z,21.8
2017-08-26T08:39:45.553Z,21.8
2017-08-26T08:40:47.984Z,22
2017-08-26T08:41:50.421Z,21.7
2017-08-26T08:42:52.848Z,21.8
2017-08-26T08:43:55.288Z,22
2017-08-26T08:44:57.730Z,22
2017-08-26T08:46:00.161Z,22
2017-08-26T08:47:02.957Z,22
2017-08-26T08:48:05.391Z,22.1
2017-08-26T08:49:07.828Z,22.2
2017-08-26T08:50:10.270Z,22.2
2017-08-26T08:51:12.703Z,21.9
2017-08-26T08:52:15.142Z,22.1
2017-08-26T08:53:17.581Z,22.2
2017-08-26T08:54:20.004Z,22.3
2017-08-26T08:55:22.450Z,22.2
2017-08-26T08:56:24.893Z,22.2
2017-08-26T08:57:27.316Z,21.9
2017-08-26T08:58:29.772Z,22
2017-08-26T08:59:32.212Z,22.1
2017-08-26T09:00:34.646Z,22
2017-08-26T09:01:37.091Z,22.1
2017-08-26T09:02:39.529Z,22.2
2017-08-26T09:03:41.968Z,22.3
2017-08-26T09:04:44.405Z,22.5
2017-08-26T09:05:47.206Z,22.4
2017-08-26T09:06:49.646Z,22.5
2017-08-26T09:07:52.085Z,22.4
2017-08-26T09:08:54.521Z,22.5
2017-08-26T09:09:56.962Z,22.3
2017-08-26T09:10:59.391Z,22.4
2017-08-26T09:12:02.186Z,22.5
2017-08-26T09:13:04.620Z,22.6
2017-08-26T09:14:07.062Z,22.8
2017-08-26T09:15:09.503Z,22.9
2017-08-26T09:16:11.941Z,22.8
2017-08-26T09:17:14.385Z,22.8
2017-08-26T09:18:16.830Z,22.8
2017-08-26T09:19:19.604Z,22.8
2017-08-26T09:20:22.049Z,22.9
2017-08-26T09:21:24.826Z,22.8
2017-08-26T09:22:27.264Z,22.9
2017-08-26T09:23:29.705Z,22.9
2017-08-26T09:24:32.145Z,22.9
2017-08-26T09:25:34.588Z,23
2017-08-26T09:26:37.044Z,23
2017-08-26T09:27:39.475Z,23
2017-08-26T09:28:41.920Z,23.1
2017-08-26T09:29:44.361Z,23.3
2017-08-26T09:30:46.803Z,23.1
2017-08-26T09:31:49.249Z,23.3
2017-08-26T09:32:51.687Z,23.3
2017-08-26T09:33:54.121Z,23.1
2017-08-26T09:34:56.561Z,23.2
2017-08-26T09:35:59.345Z,23.3
2017-08-26T09:37:01.802Z,23.3
2017-08-26T09:38:04.240Z,23.2
2017-08-26T09:39:06.671Z,23.1
2017-08-26T09:40:09.116Z,23.2
2017-08-26T09:41:11.556Z,23.2
2017-08-26T09:42:13.996Z,23.4
2017-08-26T09:43:16.443Z,23.3
2017-08-26T09:44:19.221Z,23.3
2017-08-26T09:45:22.008Z,23.3
2017-08-26T09:46:24.458Z,23.1
2017-08-26T09:47:26.898Z,23
2017-08-26T09:48:29.341Z,23.1
2017-08-26T09:49:31.781Z,23.1
2017-08-26T09:50:34.219Z,22.9
2017-08-26T09:51:36.673Z,22.9
2017-08-26T09:52:39.117Z,22.8
2017-08-26T09:53:41.560Z,22.5
2017-08-26T09:54:44.006Z,22.7
2017-08-26T09:55:46.447Z,22.8
2017-08-26T09:56:48.885Z,23
2017-08-26T09:57:51.332Z,23.1
2017-08-26T09:58:53.767Z,23
2017-08-26T09:59:56.208Z,23.2
2017-08-26T10:00:58.661Z,23.4
2017-08-26T10:02:01.101Z,23.6
2017-08-26T10:03:03.551Z,23.7
2017-08-26T10:04:05.996Z,23.7
2017-08-26T10:05:08.444Z,23.8
2017-08-26T10:06:11.242Z,24.1
2017-08-26T10:07:13.683Z,24
2017-08-26T10:08:16.128Z,24
2017-08-26T10:09:18.571Z,24.2
2017-08-26T10:10:21.003Z,24.3
2017-08-26T10:11:23.456Z,24.3
2017-08-26T10:12:25.902Z,24.4
2017-08-26T10:13:28.344Z,24.6
2017-08-26T10:14:31.480Z,24.8
2017-08-26T10:15:34.270Z,24.9
2017-08-26T10:16:36.717Z,24.9
2017-08-26T10:17:39.164Z,24.9
2017-08-26T10:18:41.598Z,24.7
2017-08-26T10:19:44.393Z,24.9
2017-08-26T10:20:46.846Z,25
2017-08-26T10:21:49.649Z,24.7
2017-08-26T10:22:52.444Z,24.6
2017-08-26T10:23:54.893Z,25
2017-08-26T10:24:57.334Z,25.2
2017-08-26T10:25:59.786Z,25.1
2017-08-26T10:27:02.233Z,25.1
2017-08-26T10:28:04.679Z,25.2
2017-08-26T10:29:07.465Z,25.3
2017-08-26T10:30:09.912Z,25
2017-08-26T10:31:12.356Z,25.2
2017-08-26T10:32:14.812Z,25.3
2017-08-26T10:33:17.250Z,25.2
2017-08-26T10:34:19.687Z,25
2017-08-26T10:35:22.141Z,25
2017-08-26T10:36:24.592Z,24.8
2017-08-26T10:37:27.037Z,25
2017-08-26T10:38:29.474Z,25
2017-08-26T10:39:32.259Z,25.1
2017-08-26T10:40:34.708Z,25.2
2017-08-26T10:41:37.161Z,25.3
2017-08-26T10:42:39.608Z,25.2
2017-08-26T10:43:42.397Z,25.3
2017-08-26T10:44:44.834Z,25.4
2017-08-26T10:45:47.287Z,25.6
2017-08-26T10:46:49.725Z,25.4
2017-08-26T10:47:52.173Z,25.4
2017-08-26T10:48:54.612Z,25.6
2017-08-26T10:49:57.066Z,25.6
2017-08-26T10:50:59.513Z,25.6
2017-08-26T10:52:02.332Z,25.6
2017-08-26T10:53:05.109Z,25.6
2017-08-26T10:54:07.571Z,25.8
2017-08-26T10:55:10.021Z,25.9
2017-08-26T10:56:12.472Z,26
2017-08-26T10:57:14.915Z,26
2017-08-26T10:58:17.696Z,25.8
2017-08-26T10:59:20.138Z,25.8
2017-08-26T11:00:22.940Z,25.7
2017-08-26T11:01:25.388Z,25.9
2017-08-26T11:02:28.175Z,26.2
2017-08-26T11:03:30.618Z,26
2017-08-26T11:04:33.060Z,25.9
2017-08-26T11:05:35.504Z,25.9
2017-08-26T11:06:38.301Z,26
2017-08-26T11:07:40.744Z,25.8
2017-08-26T11:08:43.202Z,26.1
2017-08-26T11:09:45.643Z,26.1
2017-08-26T11:10:48.435Z,26.3
2017-08-26T11:11:50.888Z,26.2
2017-08-26T11:12:53.338Z,26.1
2017-08-26T11:13:55.782Z,26.2
2017-08-26T11:14:58.232Z,26.5
2017-08-26T11:16:00.683Z,26.4
2017-08-26T11:17:03.234Z,26
2017-08-26T11:18:05.681Z,26.1
2017-08-26T11:19:08.131Z,26.3
2017-08-26T11:20:10.573Z,26.5
2017-08-26T11:21:13.024Z,26.2
2017-08-26T11:22:15.459Z,26
2017-08-26T11:23:17.911Z,26.2
2017-08-26T11:24:20.364Z,26
2017-08-26T11:25:22.812Z,26
2017-08-26T11:26:25.262Z,26.7
2017-08-26T11:27:27.719Z,26.7
2017-08-26T11:28:30.166Z,26.4
2017-08-26T11:29:33.306Z,26.4
2017-08-26T11:30:36.118Z,26.5
2017-08-26T11:31:38.568Z,26.5
2017-08-26T11:32:41.014Z,26.4
2017-08-26T11:33:43.468Z,26.5
2017-08-26T11:34:45.917Z,26.7
2017-08-26T11:35:48.361Z,26.5
2017-08-26T11:36:50.813Z,26.2
2017-08-26T11:37:53.613Z,26.3
2017-08-26T11:38:56.067Z,26.4
2017-08-26T11:39:58.520Z,26.6
2017-08-26T11:41:00.959Z,26.6
2017-08-26T11:42:03.756Z,26.5
2017-08-26T11:43:06.215Z,26.5
2017-08-26T11:44:08.661Z,26.5
2017-08-26T11:45:11.106Z,26.4
2017-08-26T11:46:13.887Z,26.7
2017-08-26T11:47:16.335Z,26.8
2017-08-26T11:48:18.798Z,26.8
2017-08-26T11:49:21.244Z,26.7
2017-08-26T11:50:23.683Z,26.4
2017-08-26T11:51:26.133Z,26.6
2017-08-26T11:52:28.581Z,26.6
2017-08-26T11:53:31.036Z,26.5
2017-08-26T11:54:33.484Z,26.7
2017-08-26T11:55:35.929Z,26.7
2017-08-26T11:56:38.725Z,26.9
2017-08-26T11:57:41.185Z,26.7
2017-08-26T11:58:43.634Z,26.2
2017-08-26T11:59:46.080Z,26.2
2017-08-26T12:00:48.525Z,26.3
2017-08-26T12:01:50.980Z,26.7
2017-08-26T12:02:53.426Z,26.5
2017-08-26T12:03:55.876Z,26
2017-08-26T12:04:58.329Z,25.6
2017-08-26T12:06:00.782Z,25.7
2017-08-26T12:07:03.561Z,26.3
2017-08-26T12:08:06.009Z,26.5
2017-08-26T12:09:08.465Z,26.5
2017-08-26T12:10:10.926Z,26.6
2017-08-26T12:11:13.377Z,26.7
2017-08-26T12:12:15.847Z,26.5
2017-08-26T12:13:18.633Z,26.1
2017-08-26T12:14:21.118Z,25.8
2017-08-26T12:15:23.553Z,25.6
2017-08-26T12:16:25.996Z,25.5
2017-08-26T12:17:28.447Z,25.4
2017-08-26T12:18:31.196Z,25.7
2017-08-26T12:19:33.650Z,25.7
2017-08-26T12:20:36.097Z,25.9
2017-08-26T12:21:38.893Z,26
2017-08-26T12:22:41.690Z,26
2017-08-26T12:23:44.150Z,26.1
2017-08-26T12:24:46.600Z,26
2017-08-26T12:25:49.057Z,26.1
2017-08-26T12:26:51.858Z,25.9
2017-08-26T12:27:54.304Z,25.7
2017-08-26T12:28:56.758Z,25.8
2017-08-26T12:29:59.206Z,25.9
2017-08-26T12:31:01.647Z,25.8
2017-08-26T12:32:04.471Z,26
2017-08-26T12:33:06.915Z,25.9
2017-08-26T12:34:09.368Z,26
2017-08-26T12:35:11.970Z,26.1
2017-08-26T12:36:14.421Z,26
2017-08-26T12:37:16.884Z,26.2
2017-08-26T12:38:19.676Z,26
2017-08-26T12:39:22.127Z,26.2
2017-08-26T12:40:24.575Z,26.2
2017-08-26T12:41:27.023Z,26.3
2017-08-26T12:42:29.473Z,25.9
2017-08-26T12:43:31.920Z,25.7
2017-08-26T12:44:34.368Z,25.5
2017-08-26T12:45:36.811Z,25.7
2017-08-26T12:46:39.258Z,25.7
2017-08-26T12:47:41.709Z,25.7
2017-08-26T12:48:44.158Z,25.7
2017-08-26T12:49:46.607Z,26
2017-08-26T12:50:49.058Z,26
2017-08-26T12:51:51.507Z,26.2
2017-08-26T12:52:53.957Z,26.2
2017-08-26T12:53:56.410Z,26.1
2017-08-26T12:54:59.202Z,26.1
2017-08-26T12:56:01.646Z,26.2
2017-08-26T12:57:04.098Z,26.4
2017-08-26T12:58:06.540Z,26
2017-08-26T12:59:08.980Z,25.9
2017-08-26T13:00:11.431Z,26.2
2017-08-26T13:01:13.876Z,26.4
2017-08-26T13:02:16.325Z,26.4
2017-08-26T13:03:18.780Z,26.4
2017-08-26T13:04:21.231Z,26.2
2017-08-26T13:05:24.047Z,26.3
2017-08-26T13:06:26.491Z,26.2
2017-08-26T13:07:29.276Z,26.5
2017-08-26T13:08:31.730Z,26.4
2017-08-26T13:09:34.178Z,26.6
2017-08-26T13:10:36.623Z,27
2017-08-26T13:11:39.068Z,27.4
2017-08-26T13:12:41.508Z,27.3
2017-08-26T13:13:43.966Z,26.9
2017-08-26T13:14:46.418Z,26.7
2017-08-26T13:15:48.865Z,26.9
2017-08-26T13:16:51.316Z,26.9
2017-08-26T13:17:53.771Z,26.8
2017-08-26T13:18:56.216Z,26.9
2017-08-26T13:19:58.671Z,26.5
2017-08-26T13:21:01.111Z,26.4
2017-08-26T13:22:03.559Z,26.8
2017-08-26T13:23:06.022Z,26.6
2017-08-26T13:24:08.460Z,26.5
2017-08-26T13:25:10.906Z,26.6
2017-08-26T13:26:13.355Z,26.7
2017-08-26T13:27:16.148Z,26.4
2017-08-26T13:28:18.608Z,26.5
2017-08-26T13:29:21.060Z,26.8
2017-08-26T13:30:23.504Z,26.6
2017-08-26T13:31:25.954Z,26.9
2017-08-26T13:32:28.406Z,26.8
2017-08-26T13:33:30.855Z,27.2
2017-08-26T13:34:33.319Z,27.2
2017-08-26T13:35:35.774Z,27.4
2017-08-26T13:36:38.219Z,27.3
2017-08-26T13:37:40.662Z,27.4
2017-08-26T13:38:43.111Z,27.3
2017-08-26T13:39:45.568Z,27.3
2017-08-26T13:40:48.021Z,26.9
2017-08-26T13:41:50.474Z,26.7
2017-08-26T13:42:52.923Z,26.5
2017-08-26T13:43:55.378Z,26.5
2017-08-26T13:44:57.840Z,26.8
2017-08-26T13:46:00.621Z,26.9
2017-08-26T13:47:03.430Z,26.5
2017-08-26T13:48:05.879Z,26.2
2017-08-26T13:49:08.328Z,26.5
2017-08-26T13:50:10.779Z,26.3
2017-08-26T13:51:13.228Z,26
2017-08-26T13:52:15.684Z,26
2017-08-26T13:53:18.820Z,25.8
2017-08-26T13:54:21.280Z,25.9
2017-08-26T13:55:23.731Z,25.9
2017-08-26T13:56:26.529Z,25.8
2017-08-26T13:57:28.987Z,25.7
2017-08-26T13:58:31.439Z,25.7